Fort Dodge, IA

9:12 PM CDT on August 01, 2014 (GMT -0500)
Webster City (KEBS) Elev 1119 ft | 42.44 °N, 93.87 °W | Change Station

Current weather conditions updated 1260 days ago

Partly Cloudy
Partly Cloudy
66 °F
Feels Like 66 °F
N
2
Wind Variable Wind from ESE
Gusts 2 mph

Tomorrow is forecast to be nearly the same temperature as today.

Today
High -- | Low -- °F
--% Chance of Precip.
Yesterday
High -- | Low -- °F
Precip. -- in
6:08 AM 8:36 PM
Waxing Crescent, 31% visible
Pressure 30.25 in
Visibility 10.0 miles
Clouds Clear
Dew Point 62 °F
Humidity 82%
Rainfall 0.00 in
Snow Depth Not available.
UV 4 out of 12
Pollen 7.60 out of 12
Air Quality Not available.
Flu Activity Not available.
METAR KEBS 181935Z AUTO 30010G14KT 10SM CLR 07/M02 A3025 RMK AO2 T00651018

More Conditions Fewer Conditions

Pressure 30.25 in
Visibility 10.0 miles
Clouds Clear
Dew Point 62 °F
Humidity 82%
Rainfall 0.00 in
Snow Depth Not available.
UV 4 out of 12
Pollen 7.60 out of 12
Air Quality Not available.
Flu Activity Not available.
METAR KEBS 181935Z AUTO 30010G14KT 10SM CLR 07/M02 A3025 RMK AO2 T00651018

More Conditions Fewer Conditions

10-Day Weather Forecast

Almanac

Astronomy

Aug. 01, 2014 Rise Set
Actual Time 6:08 AM CDT 8:36 PM CDT
Civil Twilight 5:37 AM CDT 9:08 PM CDT
Nautical Twilight 4:57 AM CDT 9:47 PM CDT
Astronomical Twilight 4:12 AM CDT 10:32 PM CDT
Moon 11:41 AM CDT (8/1) 11:13 PM CDT (8/1)
Length of Visible Light 15h 31m
Length of Day
14h 27m
Tomorrow will be 2m 11s shorter.
Waxing Crescent, 31% of the Moon is Illuminated
Today
Waxing Crescent
Aug 3
First Quarter
Aug 10
Full
Aug 17
Last Quarter
Aug 25
New

Today's Extremes

State Highs State Lows

Community

WunderPhotos

Upload Photos

1,739,805 photos uploaded!

Nearby

Snow Depth

Station Depth Elevation
No new snow has been reported.

Earthquake Activity

City Distance Mag. Time & Date
No recent earthquake activity has been reported nearby.
Minimum magnitude displayed is 2.5.

Coastal Water Temperatures

Place Temperature
No Stations Reporting

Nearby Weather Stations

Station Location Temp. Heat Index Dew Point Humidity Wind Precip. Elev Updated Type
Duncombe School area, Fort Dodge, IA 72.9 °F 75 °F 62 °F 70% ENE  at  0.0 mph 0.00 in / hr 1109 ft 9:12 PM CDT Rapid Fire
Badger IA, Badger, IA 71.8 °F 74 °F 63 °F 73% South  at  0.0 mph 0.00 in / hr 1142 ft 9:10 PM CDT Normal
NW of Badger by DSM River, Badger, IA 70.5 °F 73 °F 62 °F 75% East  at  0.0 mph 0.00 in / hr 1125 ft 9:12 PM CDT Rapid Fire
Pioneer Valley, Humboldt, IA 71.6 °F 73 °F 64 °F 76% East  at  0.0 mph 0.00 in / hr 1125 ft 9:09 PM CDT Normal
Dakota City, IA 71.3 °F 73 °F 63 °F 74% South  at  0.0 mph 0.00 in / hr 1130 ft 9:11 PM CDT Normal
Lohrville NE, Lohrville, IA 72.0 °F 76 °F 58 °F 62% ENE  at  1.6 mph 0.00 in / hr 1170 ft 9:12 PM CDT Rapid Fire

Show More Stations Show Fewer Stations